createdAt,value
2018-11-10T11:52:27.871Z,10.48
2018-11-10T11:58:22.888Z,8.77
2018-11-10T12:04:17.972Z,8.99
2018-11-10T12:10:12.852Z,7.57
2018-11-10T12:16:07.846Z,7.51
2018-11-10T12:22:02.943Z,6.22
2018-11-10T12:27:57.879Z,5.71
2018-11-10T12:33:52.884Z,5.94
2018-11-10T12:39:47.921Z,4.21
2018-11-10T12:45:42.939Z,4.41
2018-11-10T12:51:37.898Z,5.17
2018-11-10T12:57:32.919Z,4.55
2018-11-10T13:03:27.922Z,3.8
2018-11-10T13:09:22.911Z,3.78
2018-11-10T13:15:17.910Z,4
2018-11-10T13:21:12.936Z,3.74
2018-11-10T13:27:07.914Z,3.4
2018-11-10T13:33:02.974Z,2.92
2018-11-10T13:38:57.955Z,4.51
2018-11-10T13:44:52.940Z,3.18
2018-11-10T13:50:48.101Z,2.94
2018-11-10T13:56:42.996Z,2.36
2018-11-10T14:02:37.973Z,2.5
2018-11-10T14:08:32.949Z,2.13
2018-11-10T14:14:27.978Z,2.52
2018-11-10T14:20:23.055Z,2.22
2018-11-10T14:26:18.016Z,2.46
2018-11-10T14:32:13.025Z,2.49
2018-11-10T14:38:07.977Z,2.51
2018-11-10T14:44:03.117Z,2.74
2018-11-10T14:49:58.008Z,3.37
2018-11-10T14:55:53.029Z,3.24
2018-11-10T15:01:48.027Z,3.08
2018-11-10T15:07:43.044Z,2.72
2018-11-10T15:13:38.040Z,2.83
2018-11-10T15:19:33.032Z,3.16
2018-11-10T15:25:28.142Z,3.18
2018-11-10T15:31:23.041Z,3.36
2018-11-10T15:37:18.051Z,4.22
2018-11-10T15:43:13.066Z,5.05
2018-11-10T15:49:08.093Z,21.75
2018-11-10T15:55:03.059Z,36.08
2018-11-10T16:00:58.123Z,25.98
2018-11-10T16:06:53.140Z,9.43
2018-11-10T16:12:48.073Z,6.19
2018-11-10T16:18:43.102Z,5.41
2018-11-10T16:24:38.157Z,5.5
2018-11-10T16:30:33.101Z,6.65
2018-11-10T16:36:28.107Z,5.96
2018-11-10T16:42:23.137Z,5.95
2018-11-10T16:48:18.113Z,6.64
2018-11-10T16:54:13.124Z,9.95
2018-11-10T17:00:08.158Z,10.69
2018-11-10T17:06:03.182Z,6.91
2018-11-10T17:11:58.183Z,14.17
2018-11-10T17:17:53.146Z,16.19
2018-11-10T17:23:48.171Z,23.21
2018-11-10T17:29:43.199Z,16.33
2018-11-10T17:35:38.225Z,10.88
2018-11-10T17:41:33.150Z,29.14
2018-11-10T17:47:28.178Z,11.83
2018-11-10T17:53:23.196Z,8.68
2018-11-10T17:59:18.193Z,10.17
2018-11-10T18:05:13.223Z,9.16
2018-11-10T18:11:08.260Z,14.24
2018-11-10T18:17:03.220Z,11.08
2018-11-10T18:22:58.221Z,7.45
2018-11-10T18:28:53.230Z,9
2018-11-10T18:34:48.204Z,9.15
2018-11-10T18:40:43.249Z,7.22
2018-11-10T18:46:38.280Z,7.36
2018-11-10T18:52:33.228Z,7.85
2018-11-10T18:58:28.235Z,9.8
2018-11-10T19:04:23.280Z,11.42
2018-11-10T19:10:18.264Z,10.52
2018-11-10T19:16:13.290Z,13.97
2018-11-10T19:22:08.274Z,9.67
2018-11-10T19:28:03.285Z,11.8
2018-11-10T19:33:58.314Z,8.81
2018-11-10T19:39:53.299Z,10.04
2018-11-10T19:45:48.292Z,10.92
2018-11-10T19:51:43.679Z,40.56
2018-11-10T19:57:38.326Z,14.6
2018-11-10T20:03:33.323Z,32.91
2018-11-10T20:09:28.285Z,41.89
2018-11-10T20:15:23.381Z,54.84
2018-11-10T20:21:18.333Z,30.45
2018-11-10T20:27:13.317Z,21.17
2018-11-10T20:33:08.339Z,16.62
2018-11-10T20:39:03.398Z,10.22
2018-11-10T20:44:58.458Z,9.77
2018-11-10T20:50:53.444Z,8.89
2018-11-10T20:56:48.357Z,8.15
2018-11-10T21:02:43.388Z,8.94
2018-11-10T21:08:38.345Z,7.96
2018-11-10T21:14:33.356Z,8.23
2018-11-10T21:20:28.353Z,7.8
2018-11-10T21:26:23.392Z,7.72
2018-11-10T21:32:18.466Z,8.65
2018-11-10T21:38:13.402Z,8.06
2018-11-10T21:44:08.540Z,30.54
2018-11-10T21:50:03.415Z,32.95
2018-11-10T21:55:58.408Z,30.23
2018-11-10T22:01:53.416Z,11.14
2018-11-10T22:07:48.435Z,16.3
2018-11-10T22:13:43.417Z,12.55
2018-11-10T22:19:38.456Z,12.13
2018-11-10T22:25:33.439Z,16.45
2018-11-10T22:31:28.424Z,15.28
2018-11-10T22:37:23.470Z,8.06
2018-11-10T22:43:18.483Z,8.19
2018-11-10T22:49:13.477Z,9.29
2018-11-10T22:55:08.433Z,8.06
2018-11-10T23:01:03.454Z,13.27
2018-11-10T23:06:58.502Z,13.51
2018-11-10T23:12:53.495Z,8.47
2018-11-10T23:18:48.496Z,6.7
2018-11-10T23:24:43.502Z,6.65
2018-11-10T23:30:38.562Z,6.05
2018-11-10T23:36:33.539Z,5.95
2018-11-10T23:42:28.509Z,7.6
2018-11-10T23:48:23.500Z,5.87
2018-11-10T23:54:18.533Z,6.28
